FAD505 OEDF-OERK
Flight info
| Callsign | FAD505 |
|---|---|
| Flight time | 1h 3m |
| Altitude | 34000 |
| Route | MIBRA N687 ITUNI |
| Aircraft | A320/M-SDE3FGHIRWY/LB1 |
Departure
| Time | 2026-04-23 18:38 |
|---|---|
| Airport | King Fahd International Airport (OEDF) |
Arrival
| Time | 2026-04-23 19:42 |
|---|---|
| Airport | King Khalid International Airport (OERK) |
| Time | Latitude | Longitude | Altitude | Speed | Heading |
|---|---|---|---|---|---|
| 2026-04-23 18:04 | 26.46565 | 49.79572 | 85 ft | 0 kts | 86° |
| 2026-04-23 18:25 | 26.46564 | 49.79540 | 86 ft | 4 kts | 86° |
| 2026-04-23 18:25 | 26.46561 | 49.79512 | 88 ft | 4 kts | 65° |
| 2026-04-23 18:25 | 26.46545 | 49.79495 | 89 ft | 4 kts | 8° |
| 2026-04-23 18:25 | 26.46524 | 49.79495 | 87 ft | 4 kts | 355° |
| 2026-04-23 18:26 | 26.46510 | 49.79496 | 86 ft | 0 kts | 355° |
| 2026-04-23 18:28 | 26.46516 | 49.79496 | 87 ft | 3 kts | 355° |
| 2026-04-23 18:28 | 26.46555 | 49.79493 | 86 ft | 8 kts | 357° |
| 2026-04-23 18:29 | 26.46625 | 49.79485 | 89 ft | 12 kts | 353° |
| 2026-04-23 18:29 | 26.46700 | 49.79464 | 88 ft | 12 kts | 344° |
| 2026-04-23 18:29 | 26.46786 | 49.79438 | 85 ft | 14 kts | 345° |
| 2026-04-23 18:29 | 26.46860 | 49.79415 | 88 ft | 10 kts | 344° |
| 2026-04-23 18:30 | 26.46923 | 49.79386 | 87 ft | 10 kts | 333° |
| 2026-04-23 18:30 | 26.46991 | 49.79349 | 86 ft | 12 kts | 333° |
| 2026-04-23 18:30 | 26.47022 | 49.79270 | 85 ft | 13 kts | 261° |
| 2026-04-23 18:30 | 26.46997 | 49.79174 | 87 ft | 12 kts | 253° |
| 2026-04-23 18:31 | 26.46965 | 49.79081 | 87 ft | 13 kts | 229° |
| 2026-04-23 18:31 | 26.46875 | 49.79076 | 86 ft | 13 kts | 163° |
| 2026-04-23 18:31 | 26.46791 | 49.79103 | 88 ft | 12 kts | 163° |
| 2026-04-23 18:31 | 26.46717 | 49.79126 | 90 ft | 10 kts | 165° |
| 2026-04-23 18:32 | 26.46653 | 49.79146 | 87 ft | 9 kts | 165° |
| 2026-04-23 18:32 | 26.46596 | 49.79163 | 87 ft | 9 kts | 165° |
| 2026-04-23 18:32 | 26.46530 | 49.79182 | 88 ft | 11 kts | 166° |
| 2026-04-23 18:32 | 26.46453 | 49.79205 | 89 ft | 12 kts | 164° |
| 2026-04-23 18:33 | 26.46365 | 49.79231 | 88 ft | 14 kts | 165° |
| 2026-04-23 18:33 | 26.46266 | 49.79262 | 86 ft | 16 kts | 162° |
| 2026-04-23 18:33 | 26.46158 | 49.79297 | 88 ft | 17 kts | 165° |
| 2026-04-23 18:33 | 26.46037 | 49.79333 | 85 ft | 19 kts | 164° |
| 2026-04-23 18:34 | 26.45901 | 49.79376 | 88 ft | 22 kts | 164° |
| 2026-04-23 18:34 | 26.45794 | 49.79408 | 85 ft | 11 kts | 164° |
| 2026-04-23 18:34 | 26.45718 | 49.79432 | 87 ft | 11 kts | 164° |
| 2026-04-23 18:34 | 26.45664 | 49.79449 | 87 ft | 5 kts | 163° |
| 2026-04-23 18:35 | 26.45632 | 49.79450 | 88 ft | 4 kts | 199° |
| 2026-04-23 18:35 | 26.45611 | 49.79417 | 89 ft | 8 kts | 248° |
| 2026-04-23 18:35 | 26.45594 | 49.79345 | 85 ft | 11 kts | 255° |
| 2026-04-23 18:35 | 26.45578 | 49.79280 | 86 ft | 6 kts | 254° |
| 2026-04-23 18:36 | 26.45575 | 49.79267 | 86 ft | 0 kts | 254° |
| 2026-04-23 18:36 | 26.45573 | 49.79260 | 90 ft | 3 kts | 255° |
| 2026-04-23 18:37 | 26.45565 | 49.79223 | 86 ft | 6 kts | 260° |
| 2026-04-23 18:37 | 26.45577 | 49.79171 | 89 ft | 8 kts | 300° |
| 2026-04-23 18:37 | 26.45621 | 49.79137 | 87 ft | 8 kts | 345° |
| 2026-04-23 18:37 | 26.45719 | 49.79108 | 87 ft | 33 kts | 344° |
| 2026-04-23 18:38 | 26.46131 | 49.78975 | 88 ft | 95 kts | 344° |
| 2026-04-23 18:38 | 26.47024 | 49.78695 | 102 ft | 167 kts | 342° |
| 2026-04-23 18:38 | 26.48226 | 49.78349 | 736 ft | 184 kts | 342° |
| 2026-04-23 18:38 | 26.49473 | 49.77965 | 1545 ft | 192 kts | 343° |
| 2026-04-23 18:39 | 26.50776 | 49.77512 | 2269 ft | 199 kts | 345° |
| 2026-04-23 18:39 | 26.52120 | 49.77113 | 3047 ft | 203 kts | 342° |
| 2026-04-23 18:39 | 26.53039 | 49.76837 | 3449 ft | 210 kts | 342° |
| 2026-04-23 18:39 | 26.54987 | 49.76209 | 3946 ft | 223 kts | 341° |
| 2026-04-23 18:40 | 26.56468 | 49.75702 | 4023 ft | 225 kts | 339° |
| 2026-04-23 18:40 | 26.57822 | 49.74896 | 4609 ft | 225 kts | 311° |
| 2026-04-23 18:40 | 26.58481 | 49.73370 | 5334 ft | 220 kts | 272° |
| 2026-04-23 18:40 | 26.58244 | 49.71710 | 6108 ft | 216 kts | 253° |
| 2026-04-23 18:41 | 26.58101 | 49.70043 | 6868 ft | 218 kts | 274° |
| 2026-04-23 18:41 | 26.58329 | 49.68369 | 7565 ft | 218 kts | 277° |
| 2026-04-23 18:41 | 26.58615 | 49.66707 | 8320 ft | 218 kts | 278° |
| 2026-04-23 18:41 | 26.58922 | 49.65051 | 9081 ft | 218 kts | 279° |
| 2026-04-23 18:42 | 26.59129 | 49.63953 | 9560 ft | 219 kts | 279° |
| 2026-04-23 18:42 | 26.59550 | 49.61733 | 10022 ft | 220 kts | 279° |
| 2026-04-23 18:42 | 26.59862 | 49.60089 | 10699 ft | 216 kts | 279° |
| 2026-04-23 18:42 | 26.60173 | 49.58441 | 11394 ft | 216 kts | 279° |
| 2026-04-23 18:43 | 26.60487 | 49.56781 | 12096 ft | 220 kts | 279° |
| 2026-04-23 18:43 | 26.60682 | 49.55641 | 12576 ft | 222 kts | 275° |
| 2026-04-23 18:43 | 26.60743 | 49.53356 | 13568 ft | 224 kts | 263° |
| 2026-04-23 18:43 | 26.60600 | 49.52214 | 14027 ft | 225 kts | 258° |
| 2026-04-23 18:44 | 26.60166 | 49.50530 | 14708 ft | 227 kts | 249° |
| 2026-04-23 18:44 | 26.59475 | 49.48931 | 15401 ft | 230 kts | 240° |
| 2026-04-23 18:44 | 26.58572 | 49.47435 | 16113 ft | 233 kts | 237° |
| 2026-04-23 18:44 | 26.57647 | 49.45942 | 16846 ft | 235 kts | 238° |
| 2026-04-23 18:45 | 26.56415 | 49.43935 | 17829 ft | 238 kts | 238° |
| 2026-04-23 18:45 | 26.55476 | 49.42399 | 18543 ft | 240 kts | 238° |
| 2026-04-23 18:45 | 26.54852 | 49.41378 | 18990 ft | 241 kts | 238° |
| 2026-04-23 18:45 | 26.53904 | 49.39831 | 19660 ft | 242 kts | 238° |
| 2026-04-23 18:46 | 26.52949 | 49.38277 | 20319 ft | 244 kts | 238° |
| 2026-04-23 18:46 | 26.51974 | 49.36694 | 20796 ft | 252 kts | 238° |
| 2026-04-23 18:46 | 26.50978 | 49.35075 | 20904 ft | 252 kts | 238° |
| 2026-04-23 18:46 | 26.49986 | 49.33465 | 20938 ft | 252 kts | 238° |
| 2026-04-23 18:47 | 26.48993 | 49.31853 | 20938 ft | 252 kts | 238° |
| 2026-04-23 18:47 | 26.48058 | 49.30207 | 20937 ft | 251 kts | 242° |
| 2026-04-23 18:47 | 26.47186 | 49.28517 | 20939 ft | 251 kts | 243° |
| 2026-04-23 18:47 | 26.46351 | 49.26845 | 20939 ft | 251 kts | 243° |
| 2026-04-23 18:48 | 26.45501 | 49.25140 | 20948 ft | 251 kts | 243° |
| 2026-04-23 18:48 | 26.44649 | 49.23440 | 20948 ft | 251 kts | 243° |
| 2026-04-23 18:48 | 26.43792 | 49.21744 | 20948 ft | 251 kts | 243° |
| 2026-04-23 18:48 | 26.42927 | 49.20051 | 20947 ft | 251 kts | 240° |
| 2026-04-23 18:49 | 26.41918 | 49.18455 | 20947 ft | 253 kts | 233° |
| 2026-04-23 18:49 | 26.40698 | 49.17026 | 20948 ft | 256 kts | 226° |
| 2026-04-23 18:49 | 26.39280 | 49.15806 | 20950 ft | 259 kts | 218° |
| 2026-04-23 18:49 | 26.37767 | 49.14756 | 20951 ft | 260 kts | 217° |
| 2026-04-23 18:50 | 26.36731 | 49.14034 | 20950 ft | 260 kts | 217° |
| 2026-04-23 18:50 | 26.34706 | 49.12615 | 20950 ft | 260 kts | 217° |
| 2026-04-23 18:50 | 26.33176 | 49.11543 | 20949 ft | 260 kts | 217° |
| 2026-04-23 18:50 | 26.31645 | 49.10474 | 20948 ft | 260 kts | 217° |
| 2026-04-23 18:51 | 26.30115 | 49.09402 | 20950 ft | 260 kts | 217° |
| 2026-04-23 18:51 | 26.28584 | 49.08329 | 20957 ft | 260 kts | 217° |
| 2026-04-23 18:51 | 26.27075 | 49.07272 | 20947 ft | 260 kts | 217° |
| 2026-04-23 18:51 | 26.25546 | 49.06204 | 20947 ft | 260 kts | 217° |
| 2026-04-23 18:52 | 26.24012 | 49.05136 | 20947 ft | 260 kts | 217° |
| 2026-04-23 18:52 | 26.22478 | 49.04067 | 20947 ft | 260 kts | 217° |
| 2026-04-23 18:52 | 26.20940 | 49.02996 | 20948 ft | 260 kts | 217° |
| 2026-04-23 18:52 | 26.19405 | 49.01927 | 20949 ft | 260 kts | 217° |
| 2026-04-23 18:53 | 26.17869 | 49.00854 | 20951 ft | 261 kts | 217° |
| 2026-04-23 18:53 | 26.16336 | 48.99782 | 20950 ft | 261 kts | 217° |
| 2026-04-23 18:53 | 26.14797 | 48.98708 | 20950 ft | 261 kts | 217° |
| 2026-04-23 18:53 | 26.13282 | 48.97651 | 20952 ft | 261 kts | 217° |
| 2026-04-23 18:54 | 26.11742 | 48.96579 | 20950 ft | 261 kts | 217° |
| 2026-04-23 18:54 | 26.10202 | 48.95509 | 20950 ft | 261 kts | 217° |
| 2026-04-23 18:54 | 26.08662 | 48.94439 | 20949 ft | 261 kts | 217° |
| 2026-04-23 18:54 | 26.07124 | 48.93370 | 20953 ft | 261 kts | 217° |
| 2026-04-23 18:55 | 26.05583 | 48.92297 | 20960 ft | 261 kts | 217° |
| 2026-04-23 18:55 | 26.04045 | 48.91224 | 20960 ft | 261 kts | 217° |
| 2026-04-23 18:55 | 26.02506 | 48.90151 | 20965 ft | 261 kts | 217° |
| 2026-04-23 18:55 | 26.00987 | 48.89093 | 20965 ft | 261 kts | 217° |
| 2026-04-23 18:56 | 25.99449 | 48.88025 | 20963 ft | 261 kts | 217° |
| 2026-04-23 18:56 | 25.97910 | 48.86955 | 20964 ft | 261 kts | 217° |
| 2026-04-23 18:56 | 25.96401 | 48.85846 | 20952 ft | 259 kts | 222° |
| 2026-04-23 18:56 | 25.95051 | 48.84543 | 20951 ft | 256 kts | 230° |
| 2026-04-23 18:57 | 25.93886 | 48.83058 | 20952 ft | 254 kts | 237° |
| 2026-04-23 18:57 | 25.92912 | 48.81428 | 20952 ft | 253 kts | 240° |
| 2026-04-23 18:57 | 25.91976 | 48.79769 | 20954 ft | 253 kts | 240° |
| 2026-04-23 18:57 | 25.91032 | 48.78113 | 20953 ft | 254 kts | 240° |
| 2026-04-23 18:58 | 25.90097 | 48.76480 | 20952 ft | 254 kts | 240° |
| 2026-04-23 18:58 | 25.89150 | 48.74824 | 20951 ft | 254 kts | 240° |
| 2026-04-23 18:58 | 25.88194 | 48.73146 | 20966 ft | 265 kts | 240° |
| 2026-04-23 18:58 | 25.87196 | 48.71388 | 20966 ft | 272 kts | 240° |
| 2026-04-23 18:59 | 25.86180 | 48.69606 | 20966 ft | 274 kts | 240° |
| 2026-04-23 18:59 | 25.85158 | 48.67816 | 20967 ft | 274 kts | 240° |
| 2026-04-23 18:59 | 25.84137 | 48.66028 | 20963 ft | 274 kts | 240° |
| 2026-04-23 18:59 | 25.83117 | 48.64242 | 20969 ft | 274 kts | 240° |
| 2026-04-23 19:00 | 25.82097 | 48.62455 | 20966 ft | 274 kts | 240° |
| 2026-04-23 19:00 | 25.81088 | 48.60691 | 20974 ft | 274 kts | 240° |
| 2026-04-23 19:00 | 25.80070 | 48.58909 | 20972 ft | 274 kts | 240° |
| 2026-04-23 19:00 | 25.79049 | 48.57123 | 20969 ft | 274 kts | 240° |
| 2026-04-23 19:01 | 25.78026 | 48.55336 | 20981 ft | 274 kts | 240° |
| 2026-04-23 19:01 | 25.77004 | 48.53552 | 20976 ft | 274 kts | 240° |
| 2026-04-23 19:01 | 25.75982 | 48.51767 | 20980 ft | 274 kts | 240° |
| 2026-04-23 19:01 | 25.74961 | 48.49982 | 20979 ft | 274 kts | 240° |
| 2026-04-23 19:02 | 25.73936 | 48.48196 | 20976 ft | 274 kts | 240° |
| 2026-04-23 19:02 | 25.72925 | 48.46436 | 20979 ft | 274 kts | 240° |
| 2026-04-23 19:02 | 25.71900 | 48.44651 | 20985 ft | 274 kts | 240° |
| 2026-04-23 19:02 | 25.70877 | 48.42869 | 20984 ft | 274 kts | 240° |
| 2026-04-23 19:03 | 25.69853 | 48.41085 | 20987 ft | 274 kts | 240° |
| 2026-04-23 19:03 | 25.68838 | 48.39306 | 20992 ft | 273 kts | 242° |
| 2026-04-23 19:03 | 25.67989 | 48.37425 | 20994 ft | 272 kts | 248° |
| 2026-04-23 19:03 | 25.67227 | 48.35507 | 20994 ft | 272 kts | 248° |
| 2026-04-23 19:04 | 25.66461 | 48.33593 | 20999 ft | 272 kts | 248° |
| 2026-04-23 19:04 | 25.65700 | 48.31706 | 20994 ft | 272 kts | 248° |
| 2026-04-23 19:04 | 25.64928 | 48.29794 | 21000 ft | 272 kts | 247° |
| 2026-04-23 19:04 | 25.64157 | 48.27884 | 21002 ft | 272 kts | 247° |
| 2026-04-23 19:05 | 25.63385 | 48.25972 | 20999 ft | 272 kts | 247° |
| 2026-04-23 19:05 | 25.62612 | 48.24059 | 21008 ft | 272 kts | 248° |
| 2026-04-23 19:05 | 25.61841 | 48.22148 | 21003 ft | 272 kts | 248° |
| 2026-04-23 19:05 | 25.61072 | 48.20241 | 21014 ft | 272 kts | 248° |
| 2026-04-23 19:06 | 25.60300 | 48.18330 | 21003 ft | 272 kts | 248° |
| 2026-04-23 19:06 | 25.59526 | 48.16418 | 21005 ft | 272 kts | 248° |
| 2026-04-23 19:06 | 25.58764 | 48.14534 | 21008 ft | 271 kts | 248° |
| 2026-04-23 19:06 | 25.58237 | 48.12547 | 21000 ft | 270 kts | 266° |
| 2026-04-23 19:07 | 25.58445 | 48.10492 | 21003 ft | 271 kts | 283° |
| 2026-04-23 19:07 | 25.58968 | 48.08482 | 21003 ft | 272 kts | 283° |
| 2026-04-23 19:07 | 25.59491 | 48.06468 | 21001 ft | 272 kts | 283° |
| 2026-04-23 19:07 | 25.60014 | 48.04449 | 21000 ft | 273 kts | 283° |
| 2026-04-23 19:08 | 25.60537 | 48.02425 | 21004 ft | 273 kts | 283° |
| 2026-04-23 19:08 | 25.61059 | 48.00404 | 21004 ft | 273 kts | 283° |
| 2026-04-23 19:08 | 25.61578 | 47.98386 | 21006 ft | 273 kts | 283° |
| 2026-04-23 19:08 | 25.62102 | 47.96365 | 21006 ft | 273 kts | 283° |
| 2026-04-23 19:09 | 25.62619 | 47.94371 | 21013 ft | 273 kts | 283° |
| 2026-04-23 19:09 | 25.63141 | 47.92351 | 21012 ft | 273 kts | 283° |
| 2026-04-23 19:09 | 25.63661 | 47.90333 | 21023 ft | 273 kts | 283° |
| 2026-04-23 19:09 | 25.64181 | 47.88314 | 21025 ft | 272 kts | 282° |
| 2026-04-23 19:10 | 25.64698 | 47.86298 | 21026 ft | 272 kts | 282° |
| 2026-04-23 19:10 | 25.65215 | 47.84283 | 21026 ft | 272 kts | 282° |
| 2026-04-23 19:10 | 25.65733 | 47.82265 | 21028 ft | 272 kts | 282° |
| 2026-04-23 19:10 | 25.66249 | 47.80255 | 21025 ft | 272 kts | 282° |
| 2026-04-23 19:11 | 25.66763 | 47.78262 | 21012 ft | 271 kts | 283° |
| 2026-04-23 19:11 | 25.67279 | 47.76264 | 20788 ft | 270 kts | 283° |
| 2026-04-23 19:11 | 25.67796 | 47.74263 | 20570 ft | 270 kts | 283° |
| 2026-04-23 19:11 | 25.68310 | 47.72265 | 20354 ft | 269 kts | 283° |
| 2026-04-23 19:12 | 25.68820 | 47.70270 | 20138 ft | 269 kts | 283° |
| 2026-04-23 19:12 | 25.69331 | 47.68279 | 19926 ft | 268 kts | 283° |
| 2026-04-23 19:12 | 25.69840 | 47.66296 | 19715 ft | 268 kts | 283° |
| 2026-04-23 19:12 | 25.70348 | 47.64310 | 19498 ft | 267 kts | 283° |
| 2026-04-23 19:13 | 25.70852 | 47.62333 | 19304 ft | 266 kts | 283° |
| 2026-04-23 19:13 | 25.71357 | 47.60358 | 19091 ft | 266 kts | 283° |
| 2026-04-23 19:13 | 25.71852 | 47.58419 | 18891 ft | 265 kts | 282° |
| 2026-04-23 19:13 | 25.72356 | 47.56457 | 18688 ft | 264 kts | 283° |
| 2026-04-23 19:14 | 25.72855 | 47.54503 | 18481 ft | 263 kts | 282° |
| 2026-04-23 19:14 | 25.73350 | 47.52557 | 18290 ft | 262 kts | 282° |
| 2026-04-23 19:14 | 25.73845 | 47.50611 | 18058 ft | 262 kts | 282° |
| 2026-04-23 19:14 | 25.74340 | 47.48670 | 17825 ft | 261 kts | 282° |
| 2026-04-23 19:15 | 25.74834 | 47.46736 | 17596 ft | 261 kts | 282° |
| 2026-04-23 19:15 | 25.75328 | 47.44797 | 17366 ft | 260 kts | 282° |
| 2026-04-23 19:15 | 25.75810 | 47.42889 | 17140 ft | 260 kts | 282° |
| 2026-04-23 19:15 | 25.76297 | 47.40964 | 16916 ft | 259 kts | 282° |
| 2026-04-23 19:16 | 25.76785 | 47.39042 | 16690 ft | 259 kts | 282° |
| 2026-04-23 19:16 | 25.77274 | 47.37123 | 16465 ft | 258 kts | 282° |
| 2026-04-23 19:16 | 25.77762 | 47.35213 | 16264 ft | 257 kts | 282° |
| 2026-04-23 19:17 | 25.78731 | 47.31400 | 15814 ft | 256 kts | 282° |
| 2026-04-23 19:17 | 25.79212 | 47.29499 | 15601 ft | 256 kts | 282° |
| 2026-04-23 19:17 | 25.79688 | 47.27605 | 15383 ft | 255 kts | 281° |
| 2026-04-23 19:17 | 25.80166 | 47.25708 | 15171 ft | 255 kts | 281° |
| 2026-04-23 19:18 | 25.80637 | 47.23841 | 14961 ft | 255 kts | 282° |
| 2026-04-23 19:18 | 25.81115 | 47.21956 | 14751 ft | 254 kts | 282° |
| 2026-04-23 19:18 | 25.81593 | 47.20067 | 14542 ft | 254 kts | 281° |
| 2026-04-23 19:18 | 25.82067 | 47.18182 | 14334 ft | 253 kts | 281° |
| 2026-04-23 19:19 | 25.83012 | 47.14423 | 13929 ft | 251 kts | 282° |
| 2026-04-23 19:19 | 25.83474 | 47.12563 | 13712 ft | 248 kts | 279° |
| 2026-04-23 19:20 | 25.83591 | 47.08827 | 13247 ft | 241 kts | 258° |
| 2026-04-23 19:20 | 25.83166 | 47.07055 | 13024 ft | 240 kts | 249° |
| 2026-04-23 19:20 | 25.82439 | 47.05388 | 12798 ft | 240 kts | 239° |
| 2026-04-23 19:20 | 25.81431 | 47.03905 | 12576 ft | 242 kts | 229° |
| 2026-04-23 19:21 | 25.80172 | 47.02666 | 12347 ft | 243 kts | 218° |
| 2026-04-23 19:21 | 25.77109 | 47.01013 | 12030 ft | 247 kts | 205° |
| 2026-04-23 19:21 | 25.75507 | 47.00320 | 12031 ft | 248 kts | 205° |
| 2026-04-23 19:22 | 25.73896 | 46.99621 | 12034 ft | 248 kts | 205° |
| 2026-04-23 19:22 | 25.72289 | 46.98923 | 12035 ft | 248 kts | 205° |
| 2026-04-23 19:22 | 25.69094 | 46.97534 | 12035 ft | 249 kts | 205° |
| 2026-04-23 19:23 | 25.67478 | 46.96833 | 12039 ft | 249 kts | 205° |
| 2026-04-23 19:23 | 25.65867 | 46.96133 | 12037 ft | 249 kts | 205° |
| 2026-04-23 19:23 | 25.64253 | 46.95432 | 12037 ft | 249 kts | 205° |
| 2026-04-23 19:24 | 25.61024 | 46.94031 | 12036 ft | 249 kts | 205° |
| 2026-04-23 19:24 | 25.59415 | 46.93335 | 11812 ft | 247 kts | 205° |
| 2026-04-23 19:24 | 25.56245 | 46.91962 | 11247 ft | 245 kts | 205° |
| 2026-04-23 19:25 | 25.53077 | 46.90593 | 10693 ft | 243 kts | 205° |
| 2026-04-23 19:25 | 25.49946 | 46.89240 | 10132 ft | 241 kts | 204° |
| 2026-04-23 19:26 | 25.46868 | 46.87910 | 10037 ft | 239 kts | 204° |
| 2026-04-23 19:26 | 25.45319 | 46.87239 | 10038 ft | 239 kts | 204° |
| 2026-04-23 19:27 | 25.42240 | 46.85906 | 10037 ft | 239 kts | 204° |
| 2026-04-23 19:27 | 25.37585 | 46.83898 | 10037 ft | 239 kts | 204° |
| 2026-04-23 19:28 | 25.34478 | 46.82561 | 10038 ft | 240 kts | 204° |
| 2026-04-23 19:28 | 25.31391 | 46.81235 | 9968 ft | 241 kts | 204° |
| 2026-04-23 19:29 | 25.29839 | 46.80568 | 9704 ft | 238 kts | 204° |
| 2026-04-23 19:29 | 25.26806 | 46.79263 | 9196 ft | 231 kts | 204° |
| 2026-04-23 19:30 | 25.23861 | 46.77994 | 8688 ft | 224 kts | 204° |
| 2026-04-23 19:30 | 25.22425 | 46.77374 | 8450 ft | 221 kts | 204° |
| 2026-04-23 19:30 | 25.19420 | 46.76787 | 7968 ft | 224 kts | 177° |
| 2026-04-23 19:31 | 25.17907 | 46.77213 | 7730 ft | 228 kts | 160° |
| 2026-04-23 19:31 | 25.16558 | 46.78108 | 7491 ft | 232 kts | 143° |
| 2026-04-23 19:31 | 25.15474 | 46.79437 | 7253 ft | 235 kts | 127° |
| 2026-04-23 19:31 | 25.14541 | 46.80914 | 7012 ft | 233 kts | 131° |
| 2026-04-23 19:32 | 25.13508 | 46.82285 | 6804 ft | 231 kts | 136° |
| 2026-04-23 19:32 | 25.12393 | 46.83540 | 6560 ft | 228 kts | 140° |
| 2026-04-23 19:32 | 25.11210 | 46.84685 | 6316 ft | 224 kts | 144° |
| 2026-04-23 19:32 | 25.09970 | 46.85706 | 6067 ft | 220 kts | 148° |
| 2026-04-23 19:33 | 25.08691 | 46.86605 | 5825 ft | 216 kts | 152° |
| 2026-04-23 19:33 | 25.07395 | 46.87381 | 5579 ft | 213 kts | 154° |
| 2026-04-23 19:33 | 25.04706 | 46.88615 | 5126 ft | 206 kts | 161° |
| 2026-04-23 19:34 | 25.03349 | 46.89066 | 5027 ft | 203 kts | 163° |
| 2026-04-23 19:34 | 25.01970 | 46.89413 | 5029 ft | 203 kts | 167° |
| 2026-04-23 19:34 | 24.99173 | 46.89858 | 5030 ft | 203 kts | 170° |
| 2026-04-23 19:35 | 24.97770 | 46.90059 | 5029 ft | 204 kts | 170° |
| 2026-04-23 19:35 | 24.96358 | 46.90217 | 5031 ft | 204 kts | 180° |
| 2026-04-23 19:35 | 24.95000 | 46.89778 | 5042 ft | 208 kts | 208° |
| 2026-04-23 19:35 | 24.93803 | 46.88882 | 4990 ft | 210 kts | 211° |
| 2026-04-23 19:36 | 24.92610 | 46.87974 | 4648 ft | 209 kts | 211° |
| 2026-04-23 19:36 | 24.91414 | 46.87065 | 4475 ft | 211 kts | 211° |
| 2026-04-23 19:36 | 24.90204 | 46.86147 | 4301 ft | 211 kts | 211° |
| 2026-04-23 19:36 | 24.88990 | 46.85226 | 4129 ft | 213 kts | 211° |
| 2026-04-23 19:37 | 24.87766 | 46.84295 | 3952 ft | 213 kts | 211° |
| 2026-04-23 19:37 | 24.86553 | 46.83372 | 3788 ft | 212 kts | 211° |
| 2026-04-23 19:37 | 24.85333 | 46.82447 | 3621 ft | 214 kts | 210° |
| 2026-04-23 19:37 | 24.84122 | 46.81526 | 3539 ft | 214 kts | 210° |
| 2026-04-23 19:38 | 24.82911 | 46.80574 | 3522 ft | 218 kts | 217° |
| 2026-04-23 19:38 | 24.82143 | 46.79173 | 3516 ft | 210 kts | 256° |
| 2026-04-23 19:38 | 24.82230 | 46.77646 | 3528 ft | 196 kts | 291° |
| 2026-04-23 19:38 | 24.82979 | 46.76455 | 3549 ft | 188 kts | 323° |
| 2026-04-23 19:39 | 24.84066 | 46.75694 | 3476 ft | 183 kts | 334° |
| 2026-04-23 19:39 | 24.85154 | 46.74969 | 3324 ft | 183 kts | 333° |
| 2026-04-23 19:39 | 24.86237 | 46.74272 | 3178 ft | 175 kts | 336° |
| 2026-04-23 19:39 | 24.87300 | 46.73676 | 2929 ft | 167 kts | 337° |
| 2026-04-23 19:40 | 24.88297 | 46.73059 | 2763 ft | 162 kts | 334° |
| 2026-04-23 19:40 | 24.89247 | 46.72449 | 2658 ft | 159 kts | 334° |
| 2026-04-23 19:40 | 24.90198 | 46.71847 | 2586 ft | 157 kts | 332° |
| 2026-04-23 19:40 | 24.91154 | 46.71269 | 2559 ft | 157 kts | 335° |
| 2026-04-23 19:41 | 24.92093 | 46.70656 | 2388 ft | 157 kts | 332° |
| 2026-04-23 19:41 | 24.93035 | 46.70061 | 2212 ft | 155 kts | 332° |
| 2026-04-23 19:41 | 24.93972 | 46.69464 | 2060 ft | 155 kts | 334° |
| 2026-04-23 19:41 | 24.94814 | 46.68953 | 2033 ft | 124 kts | 332° |
| 2026-04-23 19:42 | 24.95475 | 46.68529 | 2036 ft | 86 kts | 330° |
| 2026-04-23 19:42 | 24.95718 | 46.68373 | 2032 ft | 28 kts | 334° |
| 2026-04-23 19:42 | 24.95892 | 46.68346 | 2030 ft | 13 kts | 6° |
| 2026-04-23 19:42 | 24.95981 | 46.68383 | 2030 ft | 15 kts | 36° |
| 2026-04-23 19:43 | 24.96033 | 46.68479 | 2032 ft | 16 kts | 87° |
| 2026-04-23 19:43 | 24.95958 | 46.68548 | 2030 ft | 15 kts | 151° |
| 2026-04-23 19:43 | 24.95865 | 46.68610 | 2032 ft | 16 kts | 149° |
| 2026-04-23 19:43 | 24.95762 | 46.68676 | 2034 ft | 18 kts | 150° |
| 2026-04-23 19:44 | 24.95648 | 46.68748 | 2034 ft | 20 kts | 150° |
| 2026-04-23 19:44 | 24.95561 | 46.68839 | 2035 ft | 16 kts | 97° |
| 2026-04-23 19:44 | 24.95607 | 46.68953 | 2035 ft | 17 kts | 61° |
| 2026-04-23 19:44 | 24.95663 | 46.69044 | 2032 ft | 11 kts | 32° |
| 2026-04-23 19:45 | 24.95733 | 46.69027 | 2032 ft | 10 kts | 330° |
| 2026-04-23 19:45 | 24.95754 | 46.69008 | 2033 ft | 1 kts | 296° |
| 2026-04-23 19:45 | 24.95752 | 46.69003 | 2031 ft | 2 kts | 265° |
| 2026-04-23 19:45 | 24.95749 | 46.68976 | 2032 ft | 3 kts | 249° |
| 2026-04-23 19:46 | 24.95736 | 46.68956 | 2038 ft | 3 kts | 234° |
| 2026-04-23 19:46 | 24.95730 | 46.68943 | 2037 ft | 1 kts | 241° |
| 2026-04-23 19:46 | 24.95728 | 46.68939 | 2037 ft | 0 kts | 241° |